Terminal Aerodrome Forecast
Issued by NWS Wichita, KS

Home | Current Version | Previous Version | Text Only | Print | Product List | Glossary Off
Versions: 1 2 3 4 5 6 7 8 9 10 11 12 13 14 15 16 17 18 19 20 21

000
FTUS43 KICT 241509 AAB
TAFICT
TAF AMD
KICT 241509Z 2415/2512 32014KT P6SM BKN025
      TEMPO 2415/2418 SCT025
     FM241800 29012KT P6SM SCT025
     FM242000 27011KT P6SM SKC
     FM250100 18008KT P6SM SCT200=

USA.gov is the U.S. government's official web portal to all federal, state and local government web resources and services.